Latest Weather Observations for Warruwi

IDD60801

Issued at 4:02 pm CST Monday 31 August 2015 (issued every 30 minutes, with the page automatically refreshed every 10 minutes)

About weather observations | Map of weather stations | Latest weather observations for NT | Other Formats
Station Details ID: 014401 Name: WARRUWI AIRPORT Lat: -11.65 Lon: 133.38 Height: 19.2 m
Data from the previous 72 hours. | See also: Recent months at Warruwi
Date/Time
CST
Temp
°C
App
Temp
°C
Dew
Point
Rel
Hum
%
Delta-T
°C
Wind Press
QNH
hPa
Press
MSL
hPa
Rain
since 9 am
mm
Dir
 
Spd
km/h
Gust
km/h
Spd
kts
Gust
kts
31/04:00pm 31.3 31.1 15.7 39 9.7 ENE 11 17 6 9 1012.1 1012.0 0.0
31/03:30pm 31.7 31.3 15.2 36 10.2 ENE 11 19 6 10 1012.4 1012.3 0.0
31/03:00pm 30.9 29.6 14.9 37 9.8 ENE 15 20 8 11 1012.7 1012.6 0.0
31/02:30pm 31.9 31.3 16.6 39 9.7 E 15 22 8 12 1013.1 1013.0 0.0
31/02:00pm 31.2 31.6 18.2 46 8.4 E 13 20 7 11 1013.6 1013.5 0.0
31/01:30pm 31.2 32.1 18.5 46 8.2 ENE 11 19 6 10 1014.0 1013.9 0.0
31/01:00pm 30.7 32.3 20.0 52 7.1 E 11 19 6 10 1014.5 1014.4 0.0
31/12:30pm 30.1 31.0 19.2 52 7.1 ESE 13 22 7 12 1014.9 1014.8 0.0
31/12:00pm 29.2 31.1 19.8 57 6.2 E 9 13 5 7 1015.3 1015.2 0.0
31/11:30am 28.9 30.8 19.8 58 5.9 E 9 13 5 7 1015.7 1015.6 0.0
31/11:00am 28.5 30.4 19.7 59 5.7 E 9 15 5 8 1016.2 1016.1 0.0
31/10:30am 27.9 30.2 19.9 61 5.2 ESE 7 13 4 7 1016.4 1016.3 0.0
31/10:00am 28.2 31.3 21.0 65 4.8 ENE 6 9 3 5 1016.4 1016.3 0.0
31/09:30am 27.0 30.6 21.3 71 3.8 SE 4 7 2 4 1016.3 1016.2 0.0
31/09:00am 26.4 29.7 21.8 76 3.1 S 7 11 4 6 1016.3 1016.2 0.0
31/08:30am 25.8 29.8 22.1 80 2.5 S 4 7 2 4 1016.2 1016.1 0.0
31/08:00am 25.0 29.0 22.1 84 1.9 SSW 4 6 2 3 1015.9 1015.8 0.0
31/07:30am 23.9 28.7 22.2 90 1.1 CALM 0 0 0 0 1015.7 1015.6 0.0
31/07:00am 22.7 26.7 21.3 92 0.9 NE 2 6 1 3 1015.4 1015.3 0.0
31/06:30am 22.8 26.5 21.4 92 0.9 NNE 4 6 2 3 1015.0 1014.9 0.0
31/06:00am 23.1 27.5 21.4 90 1.1 CALM 0 0 0 0 1014.5 1014.4 0.0
31/05:30am 23.8 28.0 21.7 88 1.4 ENE 2 4 1 2 1014.4 1014.3 0.0
31/05:00am 24.2 28.0 21.7 86 1.7 ENE 4 6 2 3 1014.4 1014.3 0.0
31/04:30am 24.4 27.9 21.9 86 1.7 ENE 6 7 3 4 1014.3 1014.2 0.0
31/04:00am 24.5 28.0 22.2 87 1.5 ENE 7 13 4 7 1014.3 1014.2 0.0
31/03:30am 24.3 27.9 22.0 87 1.5 ENE 6 9 3 5 1014.4 1014.3 0.0
31/03:00am 24.6 28.2 22.1 86 1.7 NE 6 9 3 5 1014.6 1014.5 0.0
31/02:30am 24.7 28.4 22.2 86 1.7 ENE 6 9 3 5 1014.8 1014.7 0.0
31/02:00am 24.9 28.7 22.4 86 1.7 ENE 6 9 3 5 1015.1 1015.0 0.0
31/01:30am 25.2 28.8 22.3 84 1.9 ENE 7 15 4 8 1015.3 1015.2 0.0
31/01:00am 25.3 28.4 22.2 83 2.1 ENE 9 15 5 8 1015.6 1015.5 0.0
31/12:30am 25.4 28.1 22.1 82 2.2 E 11 19 6 10 1015.7 1015.6 0.0
31/12:00am 25.3 27.3 22.2 83 2.1 E 15 20 8 11 1015.9 1015.8 0.0
 
Date/Time
CST
Temp
°C
App
Temp
°C
Dew
Point
Rel
Hum
%
Delta-T
°C
Wind Press
QNH
hPa
Press
MSL
hPa
Rain
since 9 am
mm
Dir
 
Spd
km/h
Gust
km/h
Spd
kts
Gust
kts
30/11:30pm 25.2 28.0 22.3 84 1.9 E 11 19 6 10 1015.7 1015.6 0.0
30/11:00pm 24.9 28.5 22.4 86 1.7 ENE 7 13 4 7 1015.7 1015.6 0.0
30/10:30pm 24.9 28.5 22.4 86 1.7 ENE 7 13 4 7 1015.6 1015.5 0.0
30/10:00pm 25.0 28.6 22.1 84 1.9 ENE 6 11 3 6 1015.4 1015.3 0.0
30/09:30pm 25.1 28.8 22.2 84 1.9 ENE 6 11 3 6 1015.0 1014.9 0.0
30/09:00pm 25.1 28.2 22.2 84 1.9 ENE 9 17 5 9 1014.7 1014.6 0.0
30/08:30pm 25.1 28.7 22.0 83 2.1 NE 6 13 3 7 1014.5 1014.4 0.0
30/08:00pm 25.2 28.6 21.7 81 2.3 NE 6 13 3 7 1014.2 1014.1 0.0
30/07:30pm 25.4 28.6 21.7 80 2.5 NE 7 15 4 8 1014.0 1013.9 0.0
30/07:00pm 25.5 28.5 21.2 77 2.8 NE 7 13 4 7 1013.7 1013.6 0.0
30/06:30pm 25.9 28.7 20.9 74 3.3 NE 7 15 4 8 1013.4 1013.3 0.0
30/06:00pm 26.4 28.5 20.9 72 3.6 NE 11 19 6 10 1013.3 1013.2 0.0
30/05:30pm 26.9 28.1 20.7 69 4.1 NE 15 28 8 15 1013.3 1013.2 0.0
30/05:00pm 27.3 28.5 20.6 67 4.4 NE 15 20 8 11 1013.1 1013.0 0.0
30/04:30pm 27.9 29.2 20.2 63 5.1 NE 13 22 7 12 1013.1 1013.0 0.0
30/04:00pm 28.8 30.3 20.5 61 5.5 NE 13 22 7 12 1012.9 1012.8 0.0
30/03:30pm 28.3 28.9 19.5 59 5.7 NE 15 22 8 12 1013.1 1013.0 0.0
30/03:00pm 29.3 30.0 19.6 56 6.3 NE 15 24 8 13 1013.4 1013.3 0.0
30/02:30pm 29.7 29.9 18.5 51 7.2 ENE 15 26 8 14 1013.6 1013.5 0.0
30/02:00pm 29.3 28.4 18.1 51 7.2 E 20 30 11 16 1014.0 1013.9 0.0
30/01:30pm 29.6 28.8 17.1 47 7.9 ENE 17 30 9 16 1014.4 1014.3 0.0
30/01:00pm 30.0 30.1 18.4 49 7.5 E 15 22 8 12 1014.8 1014.7 0.0
30/12:30pm 29.0 29.9 19.3 55 6.3 E 13 20 7 11 1015.4 1015.3 0.0
30/12:00pm 28.9 30.1 19.8 58 5.9 E 13 20 7 11 1015.9 1015.8 0.0
30/11:30am 28.8 29.4 19.4 56 6.1 E 15 20 8 11 1016.5 1016.4 0.0
30/11:00am 28.3 29.5 19.8 60 5.6 ESE 13 20 7 11 1016.9 1016.8 0.0
30/10:30am 27.8 29.1 20.1 63 5.0 ESE 13 19 7 10 1017.1 1017.0 0.0
30/10:00am 27.0 28.0 20.3 66 4.4 SE 15 20 8 11 1017.1 1017.0 0.0
30/09:30am 27.2 28.3 20.5 67 4.4 SE 15 19 8 10 1017.1 1017.0 0.0
30/09:00am 25.9 26.8 20.0 70 3.8 SE 15 22 8 12 1017.0 1016.9 0.0
30/08:30am 25.5 26.6 20.5 74 3.3 SE 15 20 8 11 1016.7 1016.6 0.0
30/08:00am 25.2 26.9 20.9 77 2.8 SE 13 17 7 9 1016.2 1016.1 0.0
30/07:30am 24.4 26.9 21.1 82 2.2 SE 9 13 5 7 1016.0 1015.9 0.0
30/07:00am 23.5 26.0 21.0 86 1.6 SE 9 13 5 7 1015.7 1015.6 0.0
30/06:30am 23.6 26.4 21.5 88 1.4 SE 9 13 5 7 1015.4 1015.3 0.0
30/06:00am 23.9 26.6 21.4 86 1.6 SE 9 15 5 8 1015.2 1015.1 0.0
30/05:30am 24.2 27.2 21.9 87 1.5 SE 9 15 5 8 1014.9 1014.8 0.0
30/05:00am 24.5 27.0 21.8 85 1.8 ESE 11 13 6 7 1014.8 1014.7 0.0
30/04:30am 25.3 27.2 22.0 82 2.2 E 15 24 8 13 1014.5 1014.4 0.0
30/04:00am 25.4 27.2 21.9 81 2.3 E 15 22 8 12 1014.4 1014.3 0.0
30/03:30am 25.5 27.8 22.0 81 2.3 E 13 22 7 12 1014.4 1014.3 0.0
30/03:00am 25.3 27.6 22.0 82 2.2 E 13 22 7 12 1014.5 1014.4 0.0
30/02:30am 25.1 28.0 21.8 82 2.2 ENE 9 17 5 9 1014.8 1014.7 0.0
30/02:00am 25.4 27.6 21.9 81 2.3 E 13 19 7 10 1015.0 1014.9 0.0
30/01:30am 25.3 28.4 22.2 83 2.1 E 9 15 5 8 1015.3 1015.2 0.0
30/01:00am 25.0 28.0 21.9 83 2.1 ENE 9 15 5 8 1015.3 1015.2 0.0
30/12:30am 25.0 27.9 21.7 82 2.2 ENE 9 19 5 10 1015.4 1015.3 0.0
30/12:00am 25.2 27.6 21.5 80 2.5 E 11 19 6 10 1015.4 1015.3 0.0
 
Date/Time
CST
Temp
°C
App
Temp
°C
Dew
Point
Rel
Hum
%
Delta-T
°C
Wind Press
QNH
hPa
Press
MSL
hPa
Rain
since 9 am
mm
Dir
 
Spd
km/h
Gust
km/h
Spd
kts
Gust
kts
29/11:30pm 25.3 27.5 21.2 78 2.7 ENE 11 20 6 11 1015.4 1015.3 0.0
29/11:00pm 25.2 27.9 21.3 79 2.6 ENE 9 17 5 9 1015.4 1015.3 0.0
29/10:30pm 25.1 28.0 21.0 78 2.7 ENE 7 13 4 7 1015.4 1015.3 0.0
29/10:00pm 25.0 28.0 20.9 78 2.7 ENE 6 9 3 5 1015.3 1015.2 0.0
29/09:30pm 25.0 28.1 21.1 79 2.6 ENE 6 9 3 5 1015.2 1015.1 0.0
29/09:00pm 25.0 28.0 20.9 78 2.7 ENE 6 7 3 4 1015.1 1015.0 0.0
29/08:30pm 25.1 28.0 20.6 76 2.9 ENE 6 7 3 4 1014.8 1014.7 0.0
29/08:00pm 25.3 28.3 20.8 76 3.0 ENE 6 9 3 5 1014.6 1014.5 0.0
29/07:30pm 25.4 28.1 20.6 75 3.1 ENE 7 11 4 6 1014.4 1014.3 0.0
29/07:00pm 25.6 28.2 20.4 73 3.4 ENE 7 11 4 6 1014.0 1013.9 0.0
29/06:30pm 25.9 27.9 20.0 70 3.8 ENE 9 15 5 8 1013.9 1013.8 0.0
29/06:00pm 26.6 28.1 19.7 66 4.5 ENE 11 17 6 9 1013.7 1013.6 0.0
29/05:30pm 27.2 28.4 19.8 64 4.8 ENE 13 24 7 13 1013.6 1013.5 0.0
29/05:00pm 27.4 29.0 20.7 67 4.4 E 13 22 7 12 1013.4 1013.3 0.0
29/04:30pm 28.0 29.6 20.8 65 4.8 E 13 20 7 11 1013.4 1013.3 0.0
29/04:00pm 28.0 29.0 21.1 66 4.6 E 17 22 9 12 1013.4 1013.3 0.0
29/03:30pm 27.9 28.7 20.7 65 4.8 ENE 17 24 9 13 1013.6 1013.5 0.0
29/03:00pm 28.2 28.5 20.5 63 5.1 E 19 28 10 15 1014.0 1013.9 0.0
29/02:30pm 28.2 28.4 20.2 62 5.3 E 19 28 10 15 1014.4 1014.3 0.0
29/02:00pm 28.6 28.7 20.3 60 5.5 E 20 26 11 14 1015.0 1014.9 0.0
29/01:30pm 28.2 28.4 20.5 63 5.1 E 20 30 11 16 1015.5 1015.4 0.0
29/01:00pm 28.3 28.8 20.8 63 5.0 E 19 30 10 16 1015.9 1015.8 0.0
29/12:30pm 28.4 28.5 20.4 62 5.3 E 20 28 11 15 1016.4 1016.3 0.0
29/12:00pm 28.0 28.5 20.8 65 4.8 E 19 28 10 15 1016.8 1016.7 0.0
29/11:30am 28.0 28.3 20.8 65 4.8 E 20 28 11 15 1017.1 1017.0 0.0
29/11:00am 28.1 28.5 20.9 65 4.8 E 20 28 11 15 1017.5 1017.4 0.0
29/10:30am 27.7 27.9 20.5 65 4.7 E 20 28 11 15 1017.9 1017.8 0.0
29/10:00am 27.1 27.5 20.7 68 4.2 E 19 28 10 15 1017.9 1017.8 0.0
29/09:30am 26.8 27.8 21.1 71 3.8 E 17 28 9 15 1017.7 1017.6 0.0
29/09:00am 26.4 28.3 22.0 77 2.9 ESE 15 20 8 11 1017.4 1017.3 0.0
29/08:30am 25.6 27.1 21.3 77 2.8 ESE 15 19 8 10 1017.0 1016.9 0.0
29/08:00am 25.6 27.0 21.1 76 3.0 E 15 20 8 11 1016.7 1016.6 0.0
29/07:30am 24.9 26.6 21.0 79 2.6 E 13 17 7 9 1016.3 1016.2 0.0
29/07:00am 24.0 25.9 20.5 81 2.3 E 11 17 6 9 1015.8 1015.7 0.0
29/06:30am 23.9 25.2 20.2 80 2.4 ESE 13 19 7 10 1015.4 1015.3 0.0
29/06:00am 24.1 25.6 20.6 81 2.3 E 13 20 7 11 1015.1 1015.0 0.0
29/05:30am 24.2 25.7 20.5 80 2.4 E 13 19 7 10 1014.7 1014.6 0.0
29/05:00am 24.2 25.3 20.5 80 2.4 E 15 20 8 11 1014.6 1014.5 0.0
29/04:30am 23.8 26.8 21.9 89 1.3 E 9 15 5 8 1014.5 1014.4 0.0
29/04:00am 23.7 27.2 22.1 91 1.1 ESE 7 9 4 5 1014.5 1014.4 0.0
29/03:30am 24.0 27.1 22.1 89 1.3 ESE 9 13 5 7 1014.6 1014.5 0.0
29/03:00am 24.3 27.0 22.2 88 1.4 ESE 11 13 6 7 1014.8 1014.7 0.0
29/02:30am 24.7 27.4 22.2 86 1.7 ESE 11 17 6 9 1014.8 1014.7 0.0
29/02:00am 25.0 26.9 22.1 84 1.9 E 15 20 8 11 1014.9 1014.8 0.0
29/01:30am 25.0 26.6 22.1 84 1.9 E 17 22 9 12 1015.1 1015.0 0.0
29/01:00am 25.0 27.2 21.9 83 2.1 E 13 22 7 12 1015.3 1015.2 0.0
29/12:30am 25.1 27.6 21.8 82 2.2 E 11 17 6 9 1015.5 1015.4 0.0
29/12:00am 25.3 27.3 21.6 80 2.5 E 13 22 7 12 1015.9 1015.8 0.0
 
Date/Time
CST
Temp
°C
App
Temp
°C
Dew
Point
Rel
Hum
%
Delta-T
°C
Wind Press
QNH
hPa
Press
MSL
hPa
Rain
since 9 am
mm
Dir
 
Spd
km/h
Gust
km/h
Spd
kts
Gust
kts
28/11:30pm 25.4 26.9 21.3 78 2.7 E 15 22 8 12 1016.0 1015.9 0.0
28/11:00pm 25.5 27.1 21.4 78 2.7 E 15 24 8 13 1015.9 1015.8 0.0
28/10:30pm 25.6 27.5 21.3 77 2.8 E 13 20 7 11 1015.7 1015.6 0.0
28/10:00pm 25.6 28.0 21.5 78 2.7 ENE 11 19 6 10 1015.4 1015.3 0.0
28/09:30pm 25.5 28.2 21.4 78 2.7 ENE 9 17 5 9 1015.3 1015.2 0.0
28/09:00pm 25.4 28.3 21.1 77 2.8 ENE 7 15 4 8 1015.0 1014.9 0.0
28/08:30pm 25.5 28.0 21.0 76 3.0 ENE 9 13 5 7 1014.7 1014.6 0.0
28/08:00pm 25.4 28.2 20.9 76 3.0 ENE 7 17 4 9 1014.3 1014.2 0.0
28/07:30pm 25.6 28.0 20.8 75 3.2 ENE 9 17 5 9 1013.9 1013.8 0.0
28/07:00pm 25.8 27.1 20.1 71 3.7 ENE 13 19 7 10 1013.5 1013.4 0.0
28/06:30pm 26.3 28.3 19.9 68 4.2 ENE 9 20 5 11 1013.2 1013.1 0.0
28/06:00pm 27.0 28.3 19.4 63 4.9 ENE 11 17 6 9 1012.8 1012.7 0.0
28/05:30pm 27.6 29.3 20.2 64 4.9 E 11 17 6 9 1012.6 1012.5 0.0
28/05:00pm 27.4 27.7 19.7 63 5.0 E 17 22 9 12 1012.5 1012.4 0.0
28/04:30pm 27.5 27.8 19.6 62 5.1 E 17 26 9 14 1012.6 1012.5 0.0

Other Formats:

Comma delimited format used in spreadsheet applications
http://www.bom.gov.au/fwo/IDD60801/IDD60801.94139.axf

JavaScript Object Notation format (JSON) in row-major order
http://www.bom.gov.au/fwo/IDD60801/IDD60801.94139.json